Latest Coastal Weather Observations for Hindmarsh Island

IDS60701

Issued at 1:55 am CST Tuesday 29 July 2014 (issued every 10 minutes, with the page automatically refreshed every 10 minutes)

About coastal observations | Map of coastal stations | Coastal observations for SA | Marine services | Other Formats
Station Details ID: 023894 Name: HINDMARSH ISLAND AWS Lat: -35.52 Lon: 138.82 Height: 11.0 m
Data from the previous 72 hours. | See also: Recent months at Hindmarsh Island
Date/Time
CST
Temp

°C
Wind Pressure Rain
since 9am
mm
Weather Cloud Vis
km
Sea
Height
m
Swell
Dir
 
Speed
knots
Gust
knots
hPa Trend Height
m
Period
s
Dir
29/01:30am 14.1 NW 18 29 1012.9 - 0.0 - - - - - - -
29/01:00am 14.3 WNW 18 31 1013.3 - 0.0 - - - - - - -
29/12:55am 14.3 WNW 18 28 1013.3 - 0.0 - - - - - - -
29/12:30am 14.3 NW 16 25 1013.7 - 0.0 - - - - - - -
29/12:23am 14.3 NW 17 27 1013.7 - 0.0 - - - - - - -
29/12:00am 14.2 NW 15 21 1014.0 - 0.0 - - - - - - -
 
Date/Time
CST
Temp

°C
Wind Pressure Rain
since 9am
mm
Weather Cloud Vis
km
Sea
Height
m
Swell
Dir
 
Speed
knots
Gust
knots
hPa Trend Height
m
Period
s
Dir
28/11:30pm 13.9 NW 10 15 1014.5 - 0.0 - - - - - - -
28/11:00pm 13.9 NW 12 18 1014.5 - 0.0 - - - - - - -
28/10:30pm 14.0 NW 14 19 1014.7 - 0.0 - - - - - - -
28/10:00pm 14.1 NW 13 18 1014.7 - 0.0 - - - - - - -
28/09:30pm 13.8 NW 11 15 1014.9 - 0.0 - - - - - - -
28/09:00pm 13.7 NNW 11 14 1014.9 - 0.0 - - - - - - -
28/08:30pm 13.7 NNW 11 16 1014.8 - 0.0 - - - - - - -
28/08:00pm 13.9 NNW 13 17 1014.7 - 0.0 - - - - - - -
28/07:30pm 13.7 NW 12 16 1014.7 - 0.0 - - - - - - -
28/07:00pm 13.5 NW 10 14 1014.6 - 0.0 - - - - - - -
28/06:30pm 13.4 NW 9 13 1014.6 - 0.0 - - - - - - -
28/06:00pm 13.7 NW 11 15 1014.3 - 0.0 - - - - - - -
28/05:30pm 14.2 NW 13 17 1014.3 - 0.0 - - - - - - -
28/05:00pm 15.0 WNW 16 23 1014.5 - 0.0 - - - - - - -
28/04:30pm 15.3 NW 17 24 1014.1 - 0.0 - - - - - - -
28/04:00pm 15.9 NW 17 24 1013.7 - 0.0 - - - - - - -
28/03:30pm 16.1 NW 18 24 1013.8 - 0.0 - - - - - - -
28/03:14pm 16.2 NW 16 27 1013.7 - 0.0 - - - - - - -
28/03:00pm 16.3 WNW 17 25 1014.0 - 0.0 - - - - - - -
28/02:30pm 16.5 NW 19 25 1014.1 - 0.0 - - - - - - -
28/02:00pm 16.4 WNW 18 23 1014.5 - 0.0 - - - - - - -
28/01:30pm 16.2 WNW 17 24 1014.9 - 0.0 - - - - - - -
28/01:00pm 16.0 WNW 17 23 1015.2 - 0.0 - - - - - - -
28/12:40pm 16.4 WNW 16 26 1015.5 - 0.0 - - - - - - -
28/12:30pm 16.2 WNW 17 24 1015.7 - 0.0 - - - - - - -
28/12:00pm 15.8 WNW 17 23 1016.1 - 0.0 - - - - - - -
28/11:30am 15.9 WNW 17 23 1016.3 - 0.0 - - - - - - -
28/11:00am 15.7 WNW 17 23 1016.7 - 0.0 - - - - - - -
28/10:30am 15.0 WNW 16 22 1017.1 - 0.0 - - - - - - -
28/10:00am 14.5 WNW 17 22 1017.3 - 0.0 - - - - - - -
28/09:30am 14.3 NW 13 19 1017.2 - 0.0 - - - - - - -
28/09:00am 13.2 NW 13 19 1016.9 - 0.0 Fine Partly cloudy 10 - - - -
28/08:30am 12.8 NW 13 19 1016.8 - 0.0 - - - - - - -
28/08:00am 11.5 NW 7 10 1016.9 - 0.0 - - - - - - -
28/07:30am 10.4 NE 3 5 1016.7 - 0.0 - - - - - - -
28/07:00am 10.3 NNE 4 4 1016.4 - 0.0 - - - - - - -
28/06:30am 12.0 NW 7 10 1016.4 - 0.0 - - - - - - -
28/06:00am 12.2 NW 6 9 1016.2 - 0.0 - - - - - - -
28/05:30am 11.7 NW 4 6 1016.4 - 0.0 - - - - - - -
28/05:00am 11.4 NE 3 5 1016.5 - 0.0 - - - - - - -
28/04:30am 10.7 NW 3 6 1016.6 - 0.0 - - - - - - -
28/04:00am 11.0 N 6 8 1016.3 - 0.0 - - - - - - -
28/03:30am 12.1 NW 6 9 1016.3 - 0.0 - - - - - - -
28/03:00am 12.7 NW 11 14 1016.3 - 0.0 - - - - - - -
28/02:30am 13.2 WNW 12 16 1016.5 - 0.0 - - - - - - -
28/02:00am 13.0 WNW 11 13 1016.8 - 0.0 - - - - - - -
28/01:30am 14.2 WNW 14 19 1016.6 - 0.0 - - - - - - -
28/01:00am 13.4 NW 10 15 1016.5 - 0.0 - - - - - - -
28/12:30am 13.5 NNW 10 14 1016.8 - 0.0 - - - - - - -
28/12:00am 14.3 NNW 13 15 1016.9 - 0.0 - - - - - - -
 
Date/Time
CST
Temp

°C
Wind Pressure Rain
since 9am
mm
Weather Cloud Vis
km
Sea
Height
m
Swell
Dir
 
Speed
knots
Gust
knots
hPa Trend Height
m
Period
s
Dir
27/11:30pm 14.6 NNW 12 15 1017.2 - 0.0 - - - - - - -
27/11:00pm 14.8 NNW 11 16 1017.5 - 0.0 - - - - - - -
27/10:30pm 15.6 NNW 11 16 1017.8 - 0.0 - - - - - - -
27/10:00pm 15.2 NW 11 14 1017.8 - 0.0 - - - - - - -
27/09:30pm 15.6 NNW 12 17 1017.9 - 0.0 - - - - - - -
27/09:00pm 16.0 NNW 13 18 1017.8 - 0.0 - - - - - - -
27/08:30pm 15.3 NNW 11 16 1017.7 - 0.0 - - - - - - -
27/08:00pm 14.6 N 9 12 1017.9 - 0.0 - - - - - - -
27/07:30pm 15.5 N 10 15 1018.2 - 0.0 - - - - - - -
27/07:00pm 16.0 N 15 19 1017.9 - 0.0 - - - - - - -
27/06:30pm 15.8 N 12 15 1018.3 - 0.0 - - - - - - -
27/06:00pm 15.6 NNW 10 14 1018.4 - 0.0 - - - - - - -
27/05:30pm 15.6 NNW 11 13 1018.4 - 0.0 - - - - - - -
27/05:00pm 15.9 NNW 12 16 1018.2 - 0.0 - - - - - - -
27/04:30pm 16.3 NNW 12 19 1018.2 - 0.0 - - - - - - -
27/04:00pm 16.5 NNW 12 17 1018.3 - 0.0 - - - - - - -
27/03:30pm 16.5 NNW 13 19 1018.0 - 0.0 - - - - - - -
27/03:00pm 16.6 NW 15 22 1018.5 - 0.0 - - - - - - -
27/02:30pm 16.6 NNW 17 23 1018.4 - 0.0 - - - - - - -
27/02:00pm 16.5 NW 21 28 1018.7 - 0.0 - - - - - - -
27/01:30pm 16.5 NW 20 25 1019.0 - 0.0 - - - - - - -
27/01:00pm 16.7 NNW 18 26 1019.1 - 0.0 - - - - - - -
27/12:51pm 16.4 NNW 19 29 1019.2 - 0.0 - - - - - - -
27/12:30pm 16.8 NW 21 27 1019.8 - 0.0 - - - - - - -
27/12:00pm 16.3 NNW 17 23 1020.6 - 0.0 - - - - - - -
27/11:30am 16.0 NNW 19 27 1020.9 - 0.0 - - - - - - -
27/11:00am 15.4 NNW 15 21 1021.1 - 0.0 - - - - - - -
27/10:55am 15.5 NNW 15 22 1021.2 - 0.0 - - - - - - -
27/10:30am 13.8 N 6 12 1022.1 - 0.0 - - - - - - -
27/10:00am 12.2 ENE 8 11 1022.4 - 0.0 - - - - - - -
27/09:30am 11.1 E 6 7 1022.9 - 0.0 - - - - - - -
27/09:00am 9.9 NE 6 7 1023.1 - 0.2 - - - - - - -
27/08:30am 9.1 NNE 6 8 1023.1 - 0.2 - - - - - - -
27/08:00am 8.4 NE 8 9 1023.2 - 0.2 - - - - - - -
27/07:30am 8.3 NE 8 9 1023.3 - 0.2 - - - - - - -
27/07:00am 8.8 NNE 7 9 1023.1 - 0.2 - - - - - - -
27/06:30am 9.8 N 8 11 1022.9 - 0.2 - - - - - - -
27/06:00am 9.0 NE 5 7 1023.2 - 0.2 - - - - - - -
27/05:30am 7.4 E 7 9 1023.0 - 0.2 - - - - - - -
27/05:00am 7.9 NE 7 9 1022.8 - 0.2 - - - - - - -
27/04:30am 7.9 NNE 8 9 1023.0 - 0.2 - - - - - - -
27/04:00am 7.5 N 8 9 1023.3 - 0.2 - - - - - - -
27/03:30am 6.6 NNE 7 8 1023.5 - 0.2 - - - - - - -
27/03:00am 7.6 N 7 8 1023.9 - 0.2 - - - - - - -
27/02:30am 7.7 N 8 9 1024.0 - 0.2 - - - - - - -
27/02:00am 7.5 NNE 7 8 1024.1 - 0.2 - - - - - - -
27/01:30am 7.8 NNE 8 9 1024.2 - 0.2 - - - - - - -
27/01:00am 8.1 N 8 10 1024.3 - 0.2 - - - - - - -
27/12:30am 7.7 N 8 9 1024.7 - 0.0 - - - - - - -
27/12:00am 7.9 N 7 8 1024.9 - 0.0 - - - - - - -
 
Date/Time
CST
Temp

°C
Wind Pressure Rain
since 9am
mm
Weather Cloud Vis
km
Sea
Height
m
Swell
Dir
 
Speed
knots
Gust
knots
hPa Trend Height
m
Period
s
Dir
26/11:30pm 8.0 N 7 8 1025.1 - 0.0 - - - - - - -
26/11:00pm 8.6 N 8 10 1025.3 - 0.0 - - - - - - -
26/10:30pm 9.3 N 9 11 1025.6 - 0.0 - - - - - - -
26/10:00pm 9.6 N 10 11 1025.7 - 0.0 - - - - - - -
26/09:30pm 9.5 N 9 11 1025.9 - 0.0 - - - - - - -
26/09:00pm 9.7 N 8 10 1026.0 - 0.0 - - - - - - -
26/08:30pm 9.8 N 7 8 1026.0 - 0.0 - - - - - - -
26/08:00pm 10.4 N 7 8 1026.2 - 0.0 - - - - - - -
26/07:30pm 10.9 N 7 8 1026.1 - 0.0 - - - - - - -
26/07:00pm 11.0 N 6 8 1026.1 - 0.0 - - - - - - -
26/06:30pm 11.4 N 5 6 1026.0 - 0.0 - - - - - - -
26/06:00pm 12.5 NW 6 7 1025.9 - 0.0 - - - - - - -
26/05:30pm 13.1 NW 7 8 1025.8 - 0.0 - - - - - - -
26/05:00pm 14.2 WNW 7 10 1025.6 - 0.0 - - - - - - -
26/04:30pm 14.8 WNW 9 14 1025.5 - 0.0 - - - - - - -
26/04:00pm 15.2 WNW 10 14 1025.4 - 0.0 - - - - - - -
26/03:30pm 15.3 WNW 10 14 1025.3 - 0.0 - - - - - - -
26/03:00pm 15.6 WNW 11 16 1025.3 - 0.0 - - - - - - -
26/02:30pm 15.7 NW 12 15 1025.2 - 0.0 - - - - - - -
26/02:00pm 15.9 NW 11 15 1025.2 - 0.0 - - - - - - -
26/01:30pm 15.2 NW 13 18 1025.3 - 0.0 - - - - - - -
26/01:00pm 16.0 NW 12 16 1025.5 - 0.0 - - - - - - -
26/12:30pm 15.9 WNW 13 19 1026.0 - 0.0 - - - - - - -
26/12:00pm 15.6 WNW 12 15 1026.3 - 0.0 - - - - - - -
26/11:30am 15.8 WNW 10 14 1026.7 - 0.0 - - - - - - -
26/11:00am 15.5 WNW 9 13 1027.0 - 0.0 - - - - - - -
26/10:30am 15.2 WNW 9 11 1027.0 - 0.0 - - - - - - -
26/10:00am 14.4 W 9 12 1027.1 - 0.0 - - - - - - -
26/09:30am 13.9 WNW 7 10 1027.0 - 0.0 - - - - - - -
26/09:00am 12.2 WNW 5 7 1026.8 - 1.2 Fine Mostly clear 12 - - - -
26/08:30am 11.3 NW 5 7 1026.5 - 1.2 - - - - - - -
26/08:00am 10.8 NW 5 6 1026.1 - 1.2 - - - - - - -
26/07:30am 10.2 WNW 6 8 1026.0 - 1.2 - - - - - - -
26/07:00am 10.3 WNW 8 9 1025.6 - 1.2 - - - - - - -
26/06:30am 10.2 NW 7 8 1025.3 - 1.2 - - - - - - -
26/06:00am 10.7 NW 5 6 1024.9 - 1.2 - - - - - - -
26/05:30am 11.1 NW 5 6 1024.5 - 1.2 - - - - - - -
26/05:00am 11.4 WNW 5 6 1024.2 - 1.2 - - - - - - -
26/04:30am 11.8 WNW 6 7 1024.1 - 1.2 - - - - - - -
26/04:00am 12.4 W 8 10 1023.9 - 1.2 - - - - - - -
26/03:30am 12.7 W 8 10 1023.7 - 1.2 - - - - - - -
26/03:00am 12.8 W 7 10 1023.7 - 1.2 - - - - - - -
26/02:30am 12.8 W 8 10 1023.4 - 1.2 - - - - - - -
26/02:00am 12.8 W 8 11 1023.2 - 1.2 - - - - - - -

Other Formats:

Comma delimited format used in spreadsheet applications
http://www.bom.gov.au/fwo/IDS60701/IDS60701.94677.axf

JavaScript Object Notation format (JSON) in row-major order
http://www.bom.gov.au/fwo/IDS60701/IDS60701.94677.json